sensor_id;sensor_type;location;lat;lon;timestamp;temperature;humidity
5128;DHT22;2582;48.770;9.190;2022-07-12T00:01:56;18.90;99.90
5128;DHT22;2582;48.770;9.190;2022-07-12T00:04:22;18.80;99.90
5128;DHT22;2582;48.770;9.190;2022-07-12T00:06:47;18.80;99.90
5128;DHT22;2582;48.770;9.190;2022-07-12T00:09:13;18.80;99.90
5128;DHT22;2582;48.770;9.190;2022-07-12T00:11:39;18.70;99.90
5128;DHT22;2582;48.770;9.190;2022-07-12T00:14:05;18.50;99.90
5128;DHT22;2582;48.770;9.190;2022-07-12T00:16:31;18.40;99.90
5128;DHT22;2582;48.770;9.190;2022-07-12T00:18:57;18.40;99.90
5128;DHT22;2582;48.770;9.190;2022-07-12T00:21:22;18.50;99.90
5128;DHT22;2582;48.770;9.190;2022-07-12T00:23:48;18.50;99.90
5128;DHT22;2582;48.770;9.190;2022-07-12T00:26:13;18.50;99.90
5128;DHT22;2582;48.770;9.190;2022-07-12T00:28:39;18.60;99.90
5128;DHT22;2582;48.770;9.190;2022-07-12T00:31:05;18.50;99.90
5128;DHT22;2582;48.770;9.190;2022-07-12T00:33:30;18.40;99.90
5128;DHT22;2582;48.770;9.190;2022-07-12T00:35:56;18.20;99.90
5128;DHT22;2582;48.770;9.190;2022-07-12T00:38:22;18.20;99.90
5128;DHT22;2582;48.770;9.190;2022-07-12T00:40:47;18.10;99.90
5128;DHT22;2582;48.770;9.190;2022-07-12T00:43:14;18.10;99.90
5128;DHT22;2582;48.770;9.190;2022-07-12T00:45:40;18.10;99.90
5128;DHT22;2582;48.770;9.190;2022-07-12T00:48:06;18.10;99.90
5128;DHT22;2582;48.770;9.190;2022-07-12T00:50:32;18.10;99.90
5128;DHT22;2582;48.770;9.190;2022-07-12T00:52:57;18.10;99.90
5128;DHT22;2582;48.770;9.190;2022-07-12T00:55:23;18.10;99.90
5128;DHT22;2582;48.770;9.190;2022-07-12T00:57:50;18.10;99.90
5128;DHT22;2582;48.770;9.190;2022-07-12T01:00:19;18.10;99.90
5128;DHT22;2582;48.770;9.190;2022-07-12T01:02:46;18.10;99.90
5128;DHT22;2582;48.770;9.190;2022-07-12T01:05:12;18.10;99.90
5128;DHT22;2582;48.770;9.190;2022-07-12T01:07:38;18.10;99.90
5128;DHT22;2582;48.770;9.190;2022-07-12T01:10:05;18.20;99.90
5128;DHT22;2582;48.770;9.190;2022-07-12T01:12:31;18.20;99.90
5128;DHT22;2582;48.770;9.190;2022-07-12T01:14:58;18.30;99.90
5128;DHT22;2582;48.770;9.190;2022-07-12T01:17:26;18.40;99.90
5128;DHT22;2582;48.770;9.190;2022-07-12T01:19:54;18.50;99.90
5128;DHT22;2582;48.770;9.190;2022-07-12T01:22:26;18.50;99.90
5128;DHT22;2582;48.770;9.190;2022-07-12T01:24:53;18.50;99.90
5128;DHT22;2582;48.770;9.190;2022-07-12T01:27:18;18.50;99.90
5128;DHT22;2582;48.770;9.190;2022-07-12T01:29:44;18.60;99.90
5128;DHT22;2582;48.770;9.190;2022-07-12T01:32:10;18.50;99.90
5128;DHT22;2582;48.770;9.190;2022-07-12T01:35:02;18.50;99.90
5128;DHT22;2582;48.770;9.190;2022-07-12T01:37:34;18.40;99.90
5128;DHT22;2582;48.770;9.190;2022-07-12T01:40:00;18.30;99.90
5128;DHT22;2582;48.770;9.190;2022-07-12T01:42:28;18.30;99.90
5128;DHT22;2582;48.770;9.190;2022-07-12T01:44:54;18.30;99.90
5128;DHT22;2582;48.770;9.190;2022-07-12T01:47:22;18.30;99.90
5128;DHT22;2582;48.770;9.190;2022-07-12T01:49:48;18.30;99.90
5128;DHT22;2582;48.770;9.190;2022-07-12T01:52:14;18.20;99.90
5128;DHT22;2582;48.770;9.190;2022-07-12T01:54:40;18.00;99.90
5128;DHT22;2582;48.770;9.190;2022-07-12T01:57:06;17.90;99.90
5128;DHT22;2582;48.770;9.190;2022-07-12T01:59:32;17.90;99.90
5128;DHT22;2582;48.770;9.190;2022-07-12T02:01:58;18.00;99.90
5128;DHT22;2582;48.770;9.190;2022-07-12T02:04:24;18.00;99.90
5128;DHT22;2582;48.770;9.190;2022-07-12T02:06:50;17.90;99.90
5128;DHT22;2582;48.770;9.190;2022-07-12T02:09:16;17.80;99.90
5128;DHT22;2582;48.770;9.190;2022-07-12T02:11:43;17.90;99.90
5128;DHT22;2582;48.770;9.190;2022-07-12T02:14:09;17.90;99.90
5128;DHT22;2582;48.770;9.190;2022-07-12T02:16:35;17.90;99.90
5128;DHT22;2582;48.770;9.190;2022-07-12T02:19:01;17.90;99.90
5128;DHT22;2582;48.770;9.190;2022-07-12T02:21:27;17.90;99.90
5128;DHT22;2582;48.770;9.190;2022-07-12T02:23:52;17.90;99.90
5128;DHT22;2582;48.770;9.190;2022-07-12T02:26:18;17.80;99.90
5128;DHT22;2582;48.770;9.190;2022-07-12T02:28:44;17.70;99.90
5128;DHT22;2582;48.770;9.190;2022-07-12T02:31:09;17.60;99.90
5128;DHT22;2582;48.770;9.190;2022-07-12T02:33:35;17.60;99.90
5128;DHT22;2582;48.770;9.190;2022-07-12T02:36:01;17.60;99.90
5128;DHT22;2582;48.770;9.190;2022-07-12T02:38:27;17.60;99.90
5128;DHT22;2582;48.770;9.190;2022-07-12T02:40:53;17.60;99.90
5128;DHT22;2582;48.770;9.190;2022-07-12T02:43:23;17.60;99.90
5128;DHT22;2582;48.770;9.190;2022-07-12T02:45:49;17.50;99.90
5128;DHT22;2582;48.770;9.190;2022-07-12T02:48:15;17.50;99.90
5128;DHT22;2582;48.770;9.190;2022-07-12T02:50:41;17.50;99.90
5128;DHT22;2582;48.770;9.190;2022-07-12T02:53:08;17.40;99.90
5128;DHT22;2582;48.770;9.190;2022-07-12T02:55:34;17.30;99.90
5128;DHT22;2582;48.770;9.190;2022-07-12T02:57:59;17.40;99.90
5128;DHT22;2582;48.770;9.190;2022-07-12T03:00:26;17.40;99.90
5128;DHT22;2582;48.770;9.190;2022-07-12T03:02:52;17.30;99.90
5128;DHT22;2582;48.770;9.190;2022-07-12T03:05:17;17.30;99.90
5128;DHT22;2582;48.770;9.190;2022-07-12T03:07:43;17.20;99.90
5128;DHT22;2582;48.770;9.190;2022-07-12T03:10:09;17.20;99.90
5128;DHT22;2582;48.770;9.190;2022-07-12T03:12:34;16.90;99.90
5128;DHT22;2582;48.770;9.190;2022-07-12T03:15:00;16.90;99.90
5128;DHT22;2582;48.770;9.190;2022-07-12T03:17:26;16.90;99.90
5128;DHT22;2582;48.770;9.190;2022-07-12T03:19:52;16.90;99.90
5128;DHT22;2582;48.770;9.190;2022-07-12T03:22:18;16.80;99.90
5128;DHT22;2582;48.770;9.190;2022-07-12T03:24:43;16.90;99.90
5128;DHT22;2582;48.770;9.190;2022-07-12T03:27:09;17.00;99.90
5128;DHT22;2582;48.770;9.190;2022-07-12T03:29:35;16.90;99.90
5128;DHT22;2582;48.770;9.190;2022-07-12T03:32:01;16.90;99.90
5128;DHT22;2582;48.770;9.190;2022-07-12T03:34:27;17.00;99.90
5128;DHT22;2582;48.770;9.190;2022-07-12T03:36:52;17.10;99.90
5128;DHT22;2582;48.770;9.190;2022-07-12T03:39:18;17.20;99.90
5128;DHT22;2582;48.770;9.190;2022-07-12T03:41:43;17.10;99.90
5128;DHT22;2582;48.770;9.190;2022-07-12T03:44:09;17.10;99.90
5128;DHT22;2582;48.770;9.190;2022-07-12T03:46:34;17.20;99.90
5128;DHT22;2582;48.770;9.190;2022-07-12T03:49:00;17.20;99.90
5128;DHT22;2582;48.770;9.190;2022-07-12T03:51:26;17.10;99.90
5128;DHT22;2582;48.770;9.190;2022-07-12T03:53:52;17.20;99.90
5128;DHT22;2582;48.770;9.190;2022-07-12T03:56:18;17.20;99.90
5128;DHT22;2582;48.770;9.190;2022-07-12T03:59:02;17.20;99.90
5128;DHT22;2582;48.770;9.190;2022-07-12T04:01:28;17.10;99.90
5128;DHT22;2582;48.770;9.190;2022-07-12T04:03:55;17.20;99.90
5128;DHT22;2582;48.770;9.190;2022-07-12T04:06:21;17.20;99.90
5128;DHT22;2582;48.770;9.190;2022-07-12T04:08:47;17.30;99.90
5128;DHT22;2582;48.770;9.190;2022-07-12T04:11:12;17.30;99.90
5128;DHT22;2582;48.770;9.190;2022-07-12T04:13:38;17.20;99.90
5128;DHT22;2582;48.770;9.190;2022-07-12T04:16:04;17.20;99.90
5128;DHT22;2582;48.770;9.190;2022-07-12T04:18:29;17.10;99.90
5128;DHT22;2582;48.770;9.190;2022-07-12T04:20:55;17.10;99.90
5128;DHT22;2582;48.770;9.190;2022-07-12T04:23:20;17.10;99.90
5128;DHT22;2582;48.770;9.190;2022-07-12T04:25:46;17.20;99.90
5128;DHT22;2582;48.770;9.190;2022-07-12T04:28:12;17.10;99.90
5128;DHT22;2582;48.770;9.190;2022-07-12T04:30:37;17.10;99.90
5128;DHT22;2582;48.770;9.190;2022-07-12T04:33:03;17.10;99.90
5128;DHT22;2582;48.770;9.190;2022-07-12T04:35:28;17.20;99.90
5128;DHT22;2582;48.770;9.190;2022-07-12T04:37:54;17.20;99.90
5128;DHT22;2582;48.770;9.190;2022-07-12T04:40:20;17.40;99.90
5128;DHT22;2582;48.770;9.190;2022-07-12T04:42:45;17.50;99.90
5128;DHT22;2582;48.770;9.190;2022-07-12T04:45:11;17.50;99.90
5128;DHT22;2582;48.770;9.190;2022-07-12T04:47:37;17.60;99.90
5128;DHT22;2582;48.770;9.190;2022-07-12T04:50:11;17.60;99.90
5128;DHT22;2582;48.770;9.190;2022-07-12T04:52:37;17.50;99.90
5128;DHT22;2582;48.770;9.190;2022-07-12T04:55:06;17.50;99.90
5128;DHT22;2582;48.770;9.190;2022-07-12T04:57:32;17.50;99.90
5128;DHT22;2582;48.770;9.190;2022-07-12T04:59:58;17.50;99.90
5128;DHT22;2582;48.770;9.190;2022-07-12T05:02:24;17.70;99.90
5128;DHT22;2582;48.770;9.190;2022-07-12T05:04:50;17.70;99.90
5128;DHT22;2582;48.770;9.190;2022-07-12T05:07:15;17.80;99.90
5128;DHT22;2582;48.770;9.190;2022-07-12T05:09:41;17.80;99.90
5128;DHT22;2582;48.770;9.190;2022-07-12T05:12:06;17.80;99.90
5128;DHT22;2582;48.770;9.190;2022-07-12T05:14:32;17.90;99.90
5128;DHT22;2582;48.770;9.190;2022-07-12T05:16:58;18.00;99.90
5128;DHT22;2582;48.770;9.190;2022-07-12T05:19:23;18.00;99.90
5128;DHT22;2582;48.770;9.190;2022-07-12T05:21:49;18.20;99.90
5128;DHT22;2582;48.770;9.190;2022-07-12T05:24:15;18.30;99.90
5128;DHT22;2582;48.770;9.190;2022-07-12T05:26:41;18.40;99.90
5128;DHT22;2582;48.770;9.190;2022-07-12T05:29:06;18.40;99.90
5128;DHT22;2582;48.770;9.190;2022-07-12T05:31:32;18.60;99.90
5128;DHT22;2582;48.770;9.190;2022-07-12T05:33:58;18.60;99.90
5128;DHT22;2582;48.770;9.190;2022-07-12T05:36:24;18.80;99.90
5128;DHT22;2582;48.770;9.190;2022-07-12T05:38:49;18.90;99.90
5128;DHT22;2582;48.770;9.190;2022-07-12T05:41:15;19.00;99.90
5128;DHT22;2582;48.770;9.190;2022-07-12T05:43:40;19.10;99.90
5128;DHT22;2582;48.770;9.190;2022-07-12T05:46:06;19.20;99.90
5128;DHT22;2582;48.770;9.190;2022-07-12T05:48:32;19.30;99.90
5128;DHT22;2582;48.770;9.190;2022-07-12T05:50:57;19.50;99.90
5128;DHT22;2582;48.770;9.190;2022-07-12T05:53:41;19.60;99.90
5128;DHT22;2582;48.770;9.190;2022-07-12T05:56:07;19.70;99.90
5128;DHT22;2582;48.770;9.190;2022-07-12T05:58:33;19.70;99.90
5128;DHT22;2582;48.770;9.190;2022-07-12T06:00:58;19.80;99.90
5128;DHT22;2582;48.770;9.190;2022-07-12T06:03:24;20.00;99.90
5128;DHT22;2582;48.770;9.190;2022-07-12T06:05:49;20.00;99.90
5128;DHT22;2582;48.770;9.190;2022-07-12T06:08:15;20.20;99.90
5128;DHT22;2582;48.770;9.190;2022-07-12T06:10:41;20.10;99.90
5128;DHT22;2582;48.770;9.190;2022-07-12T06:13:07;20.10;99.90
5128;DHT22;2582;48.770;9.190;2022-07-12T06:15:32;20.20;99.90
5128;DHT22;2582;48.770;9.190;2022-07-12T06:17:58;20.30;99.90
5128;DHT22;2582;48.770;9.190;2022-07-12T06:20:24;19.90;99.90
5128;DHT22;2582;48.770;9.190;2022-07-12T06:22:49;20.00;99.90
5128;DHT22;2582;48.770;9.190;2022-07-12T06:25:15;20.20;99.90
5128;DHT22;2582;48.770;9.190;2022-07-12T06:27:41;20.50;99.90
5128;DHT22;2582;48.770;9.190;2022-07-12T06:30:07;20.60;99.90
5128;DHT22;2582;48.770;9.190;2022-07-12T06:32:32;20.40;99.90
5128;DHT22;2582;48.770;9.190;2022-07-12T06:34:58;20.30;99.90
5128;DHT22;2582;48.770;9.190;2022-07-12T06:37:24;20.30;99.90
5128;DHT22;2582;48.770;9.190;2022-07-12T06:39:50;20.50;99.90
5128;DHT22;2582;48.770;9.190;2022-07-12T06:42:15;20.60;99.90
5128;DHT22;2582;48.770;9.190;2022-07-12T06:44:41;20.60;99.90
5128;DHT22;2582;48.770;9.190;2022-07-12T06:47:06;20.50;99.90
5128;DHT22;2582;48.770;9.190;2022-07-12T06:49:32;20.50;99.90
5128;DHT22;2582;48.770;9.190;2022-07-12T06:51:58;20.60;99.90
5128;DHT22;2582;48.770;9.190;2022-07-12T06:54:23;20.70;99.90
5128;DHT22;2582;48.770;9.190;2022-07-12T06:56:50;20.80;99.90
5128;DHT22;2582;48.770;9.190;2022-07-12T06:59:16;20.80;99.90
5128;DHT22;2582;48.770;9.190;2022-07-12T07:01:42;21.10;99.90
5128;DHT22;2582;48.770;9.190;2022-07-12T07:04:08;21.00;99.90
5128;DHT22;2582;48.770;9.190;2022-07-12T07:06:34;21.10;99.90
5128;DHT22;2582;48.770;9.190;2022-07-12T07:08:59;21.10;99.90
5128;DHT22;2582;48.770;9.190;2022-07-12T07:11:25;21.10;99.90
5128;DHT22;2582;48.770;9.190;2022-07-12T07:13:51;21.20;99.90
5128;DHT22;2582;48.770;9.190;2022-07-12T07:16:17;21.10;99.90
5128;DHT22;2582;48.770;9.190;2022-07-12T07:18:45;21.10;99.90
5128;DHT22;2582;48.770;9.190;2022-07-12T07:21:11;21.40;99.90
5128;DHT22;2582;48.770;9.190;2022-07-12T07:23:36;21.30;99.90
5128;DHT22;2582;48.770;9.190;2022-07-12T07:26:02;21.40;99.90
5128;DHT22;2582;48.770;9.190;2022-07-12T07:28:27;21.30;99.90
5128;DHT22;2582;48.770;9.190;2022-07-12T07:30:53;21.40;99.90
5128;DHT22;2582;48.770;9.190;2022-07-12T07:33:23;21.30;99.90
5128;DHT22;2582;48.770;9.190;2022-07-12T07:35:49;21.30;99.90
5128;DHT22;2582;48.770;9.190;2022-07-12T07:38:15;21.10;99.90
5128;DHT22;2582;48.770;9.190;2022-07-12T07:40:41;21.10;99.90
5128;DHT22;2582;48.770;9.190;2022-07-12T07:43:07;21.20;99.90
5128;DHT22;2582;48.770;9.190;2022-07-12T07:45:32;21.40;99.90
5128;DHT22;2582;48.770;9.190;2022-07-12T07:47:58;21.30;99.90
5128;DHT22;2582;48.770;9.190;2022-07-12T07:50:23;21.50;99.90
5128;DHT22;2582;48.770;9.190;2022-07-12T07:52:49;21.50;99.90
5128;DHT22;2582;48.770;9.190;2022-07-12T07:55:17;21.40;99.90
5128;DHT22;2582;48.770;9.190;2022-07-12T07:57:42;21.40;99.90
5128;DHT22;2582;48.770;9.190;2022-07-12T08:00:09;21.50;99.90
5128;DHT22;2582;48.770;9.190;2022-07-12T08:02:34;21.30;99.90
5128;DHT22;2582;48.770;9.190;2022-07-12T08:05:00;21.60;99.90
5128;DHT22;2582;48.770;9.190;2022-07-12T08:07:26;21.70;99.90
5128;DHT22;2582;48.770;9.190;2022-07-12T08:09:51;21.80;99.90
5128;DHT22;2582;48.770;9.190;2022-07-12T08:12:17;21.90;99.90
5128;DHT22;2582;48.770;9.190;2022-07-12T08:14:43;22.30;99.90
5128;DHT22;2582;48.770;9.190;2022-07-12T08:17:08;22.10;99.90
5128;DHT22;2582;48.770;9.190;2022-07-12T08:19:34;22.30;99.90
5128;DHT22;2582;48.770;9.190;2022-07-12T08:21:59;22.20;99.90
5128;DHT22;2582;48.770;9.190;2022-07-12T08:24:25;21.80;99.90
5128;DHT22;2582;48.770;9.190;2022-07-12T08:26:51;21.60;99.90
5128;DHT22;2582;48.770;9.190;2022-07-12T08:29:16;21.80;99.90
5128;DHT22;2582;48.770;9.190;2022-07-12T08:31:42;21.80;99.90
5128;DHT22;2582;48.770;9.190;2022-07-12T08:34:08;21.80;99.90
5128;DHT22;2582;48.770;9.190;2022-07-12T08:36:33;22.00;99.90
5128;DHT22;2582;48.770;9.190;2022-07-12T08:38:59;22.00;99.90
5128;DHT22;2582;48.770;9.190;2022-07-12T08:41:24;21.90;99.90
5128;DHT22;2582;48.770;9.190;2022-07-12T08:43:50;22.10;99.90
5128;DHT22;2582;48.770;9.190;2022-07-12T08:46:16;21.80;99.90
5128;DHT22;2582;48.770;9.190;2022-07-12T08:48:43;22.00;99.90
5128;DHT22;2582;48.770;9.190;2022-07-12T08:51:10;22.20;99.90
5128;DHT22;2582;48.770;9.190;2022-07-12T08:53:37;22.50;99.90
5128;DHT22;2582;48.770;9.190;2022-07-12T08:56:04;22.50;99.90
5128;DHT22;2582;48.770;9.190;2022-07-12T08:58:31;22.30;99.90
5128;DHT22;2582;48.770;9.190;2022-07-12T09:00:56;22.30;99.90
5128;DHT22;2582;48.770;9.190;2022-07-12T09:03:22;22.40;99.90
5128;DHT22;2582;48.770;9.190;2022-07-12T09:05:53;22.70;99.90
5128;DHT22;2582;48.770;9.190;2022-07-12T09:08:24;22.80;99.90
5128;DHT22;2582;48.770;9.190;2022-07-12T09:10:53;22.90;99.90
5128;DHT22;2582;48.770;9.190;2022-07-12T09:13:19;23.10;99.90
5128;DHT22;2582;48.770;9.190;2022-07-12T09:15:44;23.10;99.90
5128;DHT22;2582;48.770;9.190;2022-07-12T09:18:12;23.20;99.90
5128;DHT22;2582;48.770;9.190;2022-07-12T09:20:52;23.40;99.90
5128;DHT22;2582;48.770;9.190;2022-07-12T09:23:18;23.60;99.30
5128;DHT22;2582;48.770;9.190;2022-07-12T09:25:46;23.80;99.10
5128;DHT22;2582;48.770;9.190;2022-07-12T09:28:12;24.10;98.80
5128;DHT22;2582;48.770;9.190;2022-07-12T09:30:48;24.40;98.40
5128;DHT22;2582;48.770;9.190;2022-07-12T09:33:17;24.30;97.90
5128;DHT22;2582;48.770;9.190;2022-07-12T09:36:02;24.10;97.90
5128;DHT22;2582;48.770;9.190;2022-07-12T09:38:54;24.20;97.70
5128;DHT22;2582;48.770;9.190;2022-07-12T09:41:26;24.20;97.40
5128;DHT22;2582;48.770;9.190;2022-07-12T09:43:52;24.20;97.30
5128;DHT22;2582;48.770;9.190;2022-07-12T09:46:19;24.30;97.00
5128;DHT22;2582;48.770;9.190;2022-07-12T09:48:45;24.20;96.90
5128;DHT22;2582;48.770;9.190;2022-07-12T09:51:16;24.10;97.10
5128;DHT22;2582;48.770;9.190;2022-07-12T09:53:47;24.00;96.80
5128;DHT22;2582;48.770;9.190;2022-07-12T09:56:14;24.20;97.30
5128;DHT22;2582;48.770;9.190;2022-07-12T09:58:51;24.40;96.80
5128;DHT22;2582;48.770;9.190;2022-07-12T10:01:18;24.40;96.40
5128;DHT22;2582;48.770;9.190;2022-07-12T10:03:44;24.50;96.80
5128;DHT22;2582;48.770;9.190;2022-07-12T10:09:16;24.90;95.70
5128;DHT22;2582;48.770;9.190;2022-07-12T10:11:43;24.70;95.90
5128;DHT22;2582;48.770;9.190;2022-07-12T10:14:12;25.10;95.90
5128;DHT22;2582;48.770;9.190;2022-07-12T10:16:40;25.20;96.00
5128;DHT22;2582;48.770;9.190;2022-07-12T10:21:52;25.00;95.60
5128;DHT22;2582;48.770;9.190;2022-07-12T10:29:36;25.20;95.50
5128;DHT22;2582;48.770;9.190;2022-07-12T10:32:26;25.00;94.60
5128;DHT22;2582;48.770;9.190;2022-07-12T10:35:03;24.60;94.60
5128;DHT22;2582;48.770;9.190;2022-07-12T10:37:31;24.80;95.50
5128;DHT22;2582;48.770;9.190;2022-07-12T10:40:16;24.50;94.70
5128;DHT22;2582;48.770;9.190;2022-07-12T10:45:32;25.00;94.50
5128;DHT22;2582;48.770;9.190;2022-07-12T10:48:01;25.30;94.00
5128;DHT22;2582;48.770;9.190;2022-07-12T10:53:30;24.90;94.50
5128;DHT22;2582;48.770;9.190;2022-07-12T10:56:07;24.60;94.80
5128;DHT22;2582;48.770;9.190;2022-07-12T10:58:36;24.80;94.60
5128;DHT22;2582;48.770;9.190;2022-07-12T11:01:07;24.90;94.50
5128;DHT22;2582;48.770;9.190;2022-07-12T11:03:46;25.00;95.20
5128;DHT22;2582;48.770;9.190;2022-07-12T11:06:14;25.00;94.30
5128;DHT22;2582;48.770;9.190;2022-07-12T11:11:20;24.80;94.50
5128;DHT22;2582;48.770;9.190;2022-07-12T11:13:46;25.10;95.10
5128;DHT22;2582;48.770;9.190;2022-07-12T11:16:12;25.50;94.10
5128;DHT22;2582;48.770;9.190;2022-07-12T11:18:38;25.70;94.40
5128;DHT22;2582;48.770;9.190;2022-07-12T11:21:03;25.80;93.50
5128;DHT22;2582;48.770;9.190;2022-07-12T11:23:30;25.70;93.10
5128;DHT22;2582;48.770;9.190;2022-07-12T11:25:56;25.40;93.50
5128;DHT22;2582;48.770;9.190;2022-07-12T11:28:27;25.00;93.50
5128;DHT22;2582;48.770;9.190;2022-07-12T11:30:54;25.20;93.40
5128;DHT22;2582;48.770;9.190;2022-07-12T11:33:27;25.50;93.20
5128;DHT22;2582;48.770;9.190;2022-07-12T11:35:58;26.30;92.90
5128;DHT22;2582;48.770;9.190;2022-07-12T11:38:24;28.20;90.10
5128;DHT22;2582;48.770;9.190;2022-07-12T11:41:01;28.80;85.40
5128;DHT22;2582;48.770;9.190;2022-07-12T11:43:27;29.80;83.20
5128;DHT22;2582;48.770;9.190;2022-07-12T11:48:21;33.10;66.70
5128;DHT22;2582;48.770;9.190;2022-07-12T11:50:48;33.10;66.60
5128;DHT22;2582;48.770;9.190;2022-07-12T11:53:22;34.10;63.50
5128;DHT22;2582;48.770;9.190;2022-07-12T11:55:50;33.30;63.60
5128;DHT22;2582;48.770;9.190;2022-07-12T11:58:16;33.40;63.80
5128;DHT22;2582;48.770;9.190;2022-07-12T12:00:43;33.90;60.90
5128;DHT22;2582;48.770;9.190;2022-07-12T12:03:10;32.50;61.60
5128;DHT22;2582;48.770;9.190;2022-07-12T12:05:36;31.60;64.00
5128;DHT22;2582;48.770;9.190;2022-07-12T12:08:06;32.30;63.00
5128;DHT22;2582;48.770;9.190;2022-07-12T12:10:33;31.10;64.70
5128;DHT22;2582;48.770;9.190;2022-07-12T12:13:00;31.60;63.80
5128;DHT22;2582;48.770;9.190;2022-07-12T12:15:31;31.60;63.50
5128;DHT22;2582;48.770;9.190;2022-07-12T12:17:58;32.40;61.70
5128;DHT22;2582;48.770;9.190;2022-07-12T12:20:36;31.70;63.50
5128;DHT22;2582;48.770;9.190;2022-07-12T12:23:04;32.30;59.30
5128;DHT22;2582;48.770;9.190;2022-07-12T12:25:32;31.30;59.70
5128;DHT22;2582;48.770;9.190;2022-07-12T12:27:59;31.70;63.10
5128;DHT22;2582;48.770;9.190;2022-07-12T12:30:26;33.10;58.50
5128;DHT22;2582;48.770;9.190;2022-07-12T12:32:55;33.90;56.00
5128;DHT22;2582;48.770;9.190;2022-07-12T12:35:22;33.40;56.20
5128;DHT22;2582;48.770;9.190;2022-07-12T12:37:49;32.10;57.50
5128;DHT22;2582;48.770;9.190;2022-07-12T12:40:19;32.80;57.90
5128;DHT22;2582;48.770;9.190;2022-07-12T12:42:46;33.50;56.00
5128;DHT22;2582;48.770;9.190;2022-07-12T12:45:22;33.10;56.00
5128;DHT22;2582;48.770;9.190;2022-07-12T12:47:59;32.10;58.10
5128;DHT22;2582;48.770;9.190;2022-07-12T12:50:42;33.20;56.30
5128;DHT22;2582;48.770;9.190;2022-07-12T12:53:14;33.90;54.50
5128;DHT22;2582;48.770;9.190;2022-07-12T12:55:41;33.60;55.10
5128;DHT22;2582;48.770;9.190;2022-07-12T12:58:07;33.20;55.80
5128;DHT22;2582;48.770;9.190;2022-07-12T13:00:41;33.40;55.50
5128;DHT22;2582;48.770;9.190;2022-07-12T13:03:08;33.40;53.40
5128;DHT22;2582;48.770;9.190;2022-07-12T13:05:35;34.30;51.70
5128;DHT22;2582;48.770;9.190;2022-07-12T13:08:01;34.10;52.10
5128;DHT22;2582;48.770;9.190;2022-07-12T13:10:28;35.80;52.10
5128;DHT22;2582;48.770;9.190;2022-07-12T13:12:54;36.20;49.60
5128;DHT22;2582;48.770;9.190;2022-07-12T13:15:20;35.30;50.40
5128;DHT22;2582;48.770;9.190;2022-07-12T13:17:45;34.70;51.10
5128;DHT22;2582;48.770;9.190;2022-07-12T13:20:11;32.90;55.00
5128;DHT22;2582;48.770;9.190;2022-07-12T13:22:39;33.50;53.60
5128;DHT22;2582;48.770;9.190;2022-07-12T13:25:06;33.70;53.50
5128;DHT22;2582;48.770;9.190;2022-07-12T13:27:32;33.20;55.00
5128;DHT22;2582;48.770;9.190;2022-07-12T13:29:58;32.70;54.70
5128;DHT22;2582;48.770;9.190;2022-07-12T13:32:24;33.20;54.20
5128;DHT22;2582;48.770;9.190;2022-07-12T13:34:50;35.50;51.90
5128;DHT22;2582;48.770;9.190;2022-07-12T13:37:16;36.20;49.80
5128;DHT22;2582;48.770;9.190;2022-07-12T13:39:42;34.80;51.00
5128;DHT22;2582;48.770;9.190;2022-07-12T13:42:26;34.90;50.80
5128;DHT22;2582;48.770;9.190;2022-07-12T13:44:53;33.60;52.90
5128;DHT22;2582;48.770;9.190;2022-07-12T13:47:20;33.90;51.70
5128;DHT22;2582;48.770;9.190;2022-07-12T13:49:49;35.00;50.80
5128;DHT22;2582;48.770;9.190;2022-07-12T13:52:15;35.50;49.70
5128;DHT22;2582;48.770;9.190;2022-07-12T13:54:41;34.30;51.20
5128;DHT22;2582;48.770;9.190;2022-07-12T13:57:12;35.90;49.50
5128;DHT22;2582;48.770;9.190;2022-07-12T13:59:37;36.60;48.10
5128;DHT22;2582;48.770;9.190;2022-07-12T14:02:04;36.50;48.90
5128;DHT22;2582;48.770;9.190;2022-07-12T14:04:30;37.30;47.50
5128;DHT22;2582;48.770;9.190;2022-07-12T14:06:56;37.20;45.90
5128;DHT22;2582;48.770;9.190;2022-07-12T14:09:22;36.00;47.20
5128;DHT22;2582;48.770;9.190;2022-07-12T14:11:48;36.00;47.40
5128;DHT22;2582;48.770;9.190;2022-07-12T14:14:14;35.70;47.60
5128;DHT22;2582;48.770;9.190;2022-07-12T14:16:39;35.90;48.10
5128;DHT22;2582;48.770;9.190;2022-07-12T14:19:05;37.20;46.50
5128;DHT22;2582;48.770;9.190;2022-07-12T14:21:31;36.10;47.20
5128;DHT22;2582;48.770;9.190;2022-07-12T14:23:56;35.80;47.80
5128;DHT22;2582;48.770;9.190;2022-07-12T14:26:26;36.50;46.30
5128;DHT22;2582;48.770;9.190;2022-07-12T14:28:52;35.20;47.90
5128;DHT22;2582;48.770;9.190;2022-07-12T14:31:18;36.30;46.10
5128;DHT22;2582;48.770;9.190;2022-07-12T14:33:44;35.00;46.80
5128;DHT22;2582;48.770;9.190;2022-07-12T14:36:09;35.90;46.80
5128;DHT22;2582;48.770;9.190;2022-07-12T14:38:35;36.30;45.90
5128;DHT22;2582;48.770;9.190;2022-07-12T14:41:01;35.40;47.10
5128;DHT22;2582;48.770;9.190;2022-07-12T14:43:26;35.20;47.60
5128;DHT22;2582;48.770;9.190;2022-07-12T14:45:52;34.50;48.70
5128;DHT22;2582;48.770;9.190;2022-07-12T14:48:17;35.20;48.80
5128;DHT22;2582;48.770;9.190;2022-07-12T14:50:43;35.30;47.50
5128;DHT22;2582;48.770;9.190;2022-07-12T14:53:09;36.60;46.40
5128;DHT22;2582;48.770;9.190;2022-07-12T14:55:34;38.20;45.40
5128;DHT22;2582;48.770;9.190;2022-07-12T14:58:00;38.70;43.20
5128;DHT22;2582;48.770;9.190;2022-07-12T15:00:27;37.40;44.50
5128;DHT22;2582;48.770;9.190;2022-07-12T15:02:53;37.40;44.80
5128;DHT22;2582;48.770;9.190;2022-07-12T15:05:24;37.50;44.50
5128;DHT22;2582;48.770;9.190;2022-07-12T15:07:50;38.20;43.80
5128;DHT22;2582;48.770;9.190;2022-07-12T15:10:15;38.30;42.50
5128;DHT22;2582;48.770;9.190;2022-07-12T15:12:41;36.80;45.90
5128;DHT22;2582;48.770;9.190;2022-07-12T15:15:07;37.30;45.10
5128;DHT22;2582;48.770;9.190;2022-07-12T15:17:32;37.70;44.00
5128;DHT22;2582;48.770;9.190;2022-07-12T15:19:58;37.60;43.60
5128;DHT22;2582;48.770;9.190;2022-07-12T15:22:23;37.00;45.10
5128;DHT22;2582;48.770;9.190;2022-07-12T15:24:49;35.60;45.90
5128;DHT22;2582;48.770;9.190;2022-07-12T15:27:15;36.00;45.60
5128;DHT22;2582;48.770;9.190;2022-07-12T15:29:40;36.40;44.60
5128;DHT22;2582;48.770;9.190;2022-07-12T15:32:08;36.60;44.20
5128;DHT22;2582;48.770;9.190;2022-07-12T15:34:34;35.80;44.90
5128;DHT22;2582;48.770;9.190;2022-07-12T15:37:00;37.10;44.20
5128;DHT22;2582;48.770;9.190;2022-07-12T15:39:25;36.50;43.60
5128;DHT22;2582;48.770;9.190;2022-07-12T15:41:51;36.30;43.30
5128;DHT22;2582;48.770;9.190;2022-07-12T15:44:17;36.00;44.40
5128;DHT22;2582;48.770;9.190;2022-07-12T15:46:44;36.10;45.10
5128;DHT22;2582;48.770;9.190;2022-07-12T15:49:10;36.70;44.00
5128;DHT22;2582;48.770;9.190;2022-07-12T15:51:37;37.10;44.10
5128;DHT22;2582;48.770;9.190;2022-07-12T15:54:21;36.60;43.30
5128;DHT22;2582;48.770;9.190;2022-07-12T15:56:47;36.50;43.90
5128;DHT22;2582;48.770;9.190;2022-07-12T15:59:14;37.90;42.00
5128;DHT22;2582;48.770;9.190;2022-07-12T16:01:39;38.20;41.00
5128;DHT22;2582;48.770;9.190;2022-07-12T16:04:07;38.90;40.50
5128;DHT22;2582;48.770;9.190;2022-07-12T16:06:33;38.60;40.70
5128;DHT22;2582;48.770;9.190;2022-07-12T16:09:01;38.70;41.00
5128;DHT22;2582;48.770;9.190;2022-07-12T16:11:27;38.60;40.50
5128;DHT22;2582;48.770;9.190;2022-07-12T16:13:52;37.90;40.90
5128;DHT22;2582;48.770;9.190;2022-07-12T16:16:18;37.90;42.00
5128;DHT22;2582;48.770;9.190;2022-07-12T16:18:44;37.20;41.60
5128;DHT22;2582;48.770;9.190;2022-07-12T16:21:10;37.10;42.50
5128;DHT22;2582;48.770;9.190;2022-07-12T16:23:36;37.20;42.50